Nearby METAR Reports

 

KSJC - San Jose, California, USA
Distance from station: NE 14km
Updated: 28/09/2020 16:53
Overcast
Overcast
 Wind from WNW
Wind: WNW 15 km/h
Temperature: 37°C
Dew Point: 2°C
Humidity: 11%
Barometer: 1010.5 hPa
Clouds: Overcast
Visibility: 16 km
Cloud details: Few Clouds 366 m
Mostly cloudy 1341 m
Overcast 1829 m
2020/09/28 23:53 KSJC 282353Z 30008KT 10SM FEW012 BKN044 OVC060 37/02 A2984 RMK AO2 SLP104 FU FEW012 FU BKN044 FU OVC060 T03670022 10383 20294 56015
KNUQ - Moffett Nas/Mtn, California, USA
Distance from station: N 14km
Updated: 28/09/2020 06:55
NOT Current
Clear
Clear
 Wind from calm
Wind: Calm
Temperature: 19°C
Dew Point: 10°C
Humidity: 56%
Barometer: 1012.5 hPa
Clouds: Clear
Visibility: 16 km
2020/09/28 13:55 KNUQ 281355Z AUTO 00000KT 10SM CLR 19/10 A2990 RMK AO2
 
KPAO - Palo Alto, California, USA
Distance from station: NNW 23km
Updated: 28/09/2020 15:47
NOT Current
Smoke, Clear
Smoke, Clear
 Wind from NNW
Wind: NNW 17 km/h
Temperature: 35°C
Dew Point: 12°C
Humidity: 25%
Barometer: 1011.2 hPa
Summary: Smoke
Clouds: Clear
Visibility: 16 km
2020/09/28 22:47 KPAO 282247Z 34009KT 10SM FU SKC 35/12 A2986
KRHV - San Jose/Reid, California, USA
Distance from station: ENE 19km
Updated: 28/09/2020 16:47
Clear
Clear
 Wind from NW
Wind: NW 17 km/h
Temperature: 37°C
Dew Point: 5°C
Humidity: 14%
Barometer: 1010.8 hPa
Clouds: Clear
Visibility: 16 km
2020/09/28 23:47 KRHV 282347Z 31009KT 10SM SKC 37/05 A2985
 
KOAK - Oakland, California, USA
Distance from station: NNW 50km
Updated: 28/09/2020 16:53
Few Clouds
Few Clouds
 Wind from WNW
Wind: WNW 28 km/h
Temperature: 28°C
Heat Index: 28°C
Dew Point: 15°C
Humidity: 45%
Barometer: 1011.2 hPa
Clouds: Few Clouds
Visibility: 16 km
Cloud details: Few Clouds 6096 m
2020/09/28 23:53 KOAK 282353Z 30015KT 10SM FEW200 28/15 A2986 RMK AO2 SLP110 T02780150 10344 20278 56014
KSQL - San Carlos Airpo, California, USA
Distance from station: NW 34km
Updated: 28/09/2020 16:53
Clear
Clear
 Wind from NNW
Wind: NNW 9 km/h
Temperature: 36°C
Dew Point: 4°C
Humidity: 13%
Barometer: 1011.2 hPa
Clouds: Clear
Visibility: 16 km
2020/09/28 23:53 KSQL 282353Z 33005KT 10SM SKC 36/04 A2986
 
KSFO - San Francisco, California, USA
Distance from station: NW 49km
Updated: 28/09/2020 16:56
Few Clouds
Few Clouds
 Wind from WNW
Wind: WNW 31 km/h
Temperature: 25°C
Dew Point: 13°C
Humidity: 47%
Barometer: 1010.8 hPa
Clouds: Few Clouds
Visibility: 16 km
Cloud details: Few Clouds 305 m
Few Clouds 6096 m
2020/09/28 23:56 KSFO 282356Z 30017KT 10SM FEW010 FEW200 25/13 A2985 RMK AO2 SLP109 T02500128 10356 20244 56012
KE16 - San Martin, California, USA
Distance from station: ESE 43km
Updated: 28/09/2020 17:30
Clear
Clear
 Wind from NNW
Wind: NNW 6 km/h
Temperature: 36°C
Dew Point: 4°C
Humidity: 13%
Barometer: 1011.5 hPa
Clouds: Clear
Visibility: 16 km
2020/09/29 00:30 KE16 290030Z AUTO 33003KT 10SM CLR 36/04 A2987 RMK AO2
 
KWVI - Watsonville, California, USA
Distance from station: SSE 44km
Updated: 28/09/2020 16:53
Clear
Clear
 Wind from W
Wind: W 7 km/h
Temperature: 18°C
Dew Point: 14°C
Humidity: 78%
Barometer: 1013.2 hPa
Clouds: Clear
Visibility: 16 km
2020/09/28 23:53 KWVI 282353Z AUTO 27004KT 10SM CLR 18/14 A2992 RMK AO2 SLP131 T01830144 10261 20183 56002
KHAF - Half Moon Bay, California, USA
Distance from station: WNW 50km
Updated: 28/09/2020 17:35
Fog, Overcast
Fog, Overcast
 Wind from S
Wind: S 11 km/h
Temperature: 14°C
Dew Point: 14°C
Humidity: 100%
Barometer: 1013.5 hPa
Summary: Fog
Clouds: Overcast
Visibility: 0.4 km
Cloud details: Overcast 61 m
2020/09/29 00:35 KHAF 290035Z AUTO 17006KT 1/4SM FG OVC002 14/14 A2993 RMK AO2
 
KHWD - Hayward, California, USA
Distance from station: N 44km
Updated: 28/09/2020 16:54
Clear
Clear
 Wind from W
Wind: W 13 km/h
Temperature: 32°C
Dew Point: 13°C
Humidity: 31%
Barometer: 1010.8 hPa
Clouds: Clear
Visibility: 16 km
2020/09/28 23:54 KHWD 282354Z 27007KT 10SM CLR 32/13 A2985 RMK AO2 SLP115 T03220133 10361 20322 56013
KLVK - Livermore, California, USA
Distance from station: NNE 51km
Updated: 28/09/2020 16:53
Clear
Clear
 Wind from E
Wind: E 15 km/h
Temperature: 36°C
Dew Point: -2°C
Humidity: 9%
Barometer: 1011.2 hPa
Clouds: Clear
Visibility: 16 km
2020/09/28 23:53 KLVK 282353Z 08008KT 10SM CLR 36/M02 A2986 RMK AO2 SLP107 T03611017 10367 20322 56016